Time;durP1;ratioP1;P1;durP2;ratioP2;P2;SDS_P1;SDS_P2;PMS_P1;PMS_P2;Temp;Humidity;BMP_temperature;BMP_pressure;BME280_temperature;BME280_humidity;BME280_pressure;Samples;Min_cycle;Max_cycle;Signal;HPM_P1;HPM_P2
2023/12/30 00:02:27;;;;;;;6.00;2.00;;;5.80;1.00;;;;;;10444980;28;20227;-82
2023/12/30 00:07:49;;;;;;;4.70;2.30;;;5.90;1.00;;;;;;10428160;28;20202;-81
2023/12/30 00:13:10;;;;;;;4.00;2.17;;;5.80;1.00;;;;;;10455878;28;20410;-82
2023/12/30 00:18:31;;;;;;;4.03;2.73;;;5.80;1.00;;;;;;10441669;28;20224;-82
2023/12/30 00:23:53;;;;;;;5.80;2.53;;;5.80;1.00;;;;;;10427181;28;20198;-81
2023/12/30 00:29:14;;;;;;;3.17;1.90;;;5.90;1.00;;;;;;10417125;28;20203;-81
2023/12/30 00:34:36;;;;;;;5.07;2.30;;;5.90;1.00;;;;;;10404275;28;20245;-81
2023/12/30 00:39:57;;;;;;;4.23;2.07;;;5.90;1.00;;;;;;10412735;28;20257;-83
2023/12/30 00:45:18;;;;;;;10.07;4.23;;;5.90;1.00;;;;;;10412734;28;20434;-83
2023/12/30 00:50:40;;;;;;;5.10;2.50;;;5.90;1.00;;;;;;10409623;28;20223;-80
2023/12/30 00:56:01;;;;;;;4.60;2.30;;;6.00;1.00;;;;;;10398848;28;20247;-82
2023/12/30 01:01:23;;;;;;;5.67;2.63;;;5.90;1.00;;;;;;10386862;28;20245;-83
2023/12/30 01:06:44;;;;;;;3.53;2.07;;;6.00;1.00;;;;;;10384744;28;20229;-82
2023/12/30 01:12:06;;;;;;;4.77;2.67;;;6.00;1.00;;;;;;10398458;28;20193;-83
2023/12/30 01:17:28;;;;;;;6.87;2.53;;;6.00;17.50;;;;;;10412251;28;20269;-81
2023/12/30 01:22:49;;;;;;;4.93;2.60;;;6.00;36.40;;;;;;10397682;28;20249;-82
2023/12/30 01:28:10;;;;;;;5.57;3.33;;;6.10;19.30;;;;;;10415668;28;20491;-84
2023/12/30 01:33:32;;;;;;;3.63;2.70;;;6.10;38.30;;;;;;10383624;28;20207;-81
2023/12/30 01:38:53;;;;;;;6.00;2.50;;;6.10;54.00;;;;;;10422871;28;20234;-81
2023/12/30 01:44:14;;;;;;;3.50;2.27;;;6.20;1.00;;;;;;10410422;28;20240;-82
2023/12/30 01:49:36;;;;;;;4.87;2.27;;;6.30;1.00;;;;;;10423606;28;20232;-82
2023/12/30 01:54:57;;;;;;;3.07;2.10;;;6.20;1.00;;;;;;10423596;28;20226;-82
2023/12/30 02:00:20;;;;;;;3.83;2.13;;;6.20;1.00;;;;;;10436570;28;20262;-82
2023/12/30 02:05:42;;;;;;;3.57;2.03;;;6.20;1.00;;;;;;10423455;28;20200;-82
2023/12/30 02:11:03;;;;;;;1.83;1.20;;;6.30;1.00;;;;;;10437405;28;20237;-81
2023/12/30 02:16:24;;;;;;;4.13;1.53;;;6.30;1.00;;;;;;10422849;28;20222;-82
2023/12/30 02:21:46;;;;;;;1.57;1.00;;;6.20;1.00;;;;;;10422169;28;20481;-80
2023/12/30 02:27:09;;;;;;;2.60;1.23;;;6.20;1.00;;;;;;10436868;28;20245;-82
2023/12/30 02:32:30;;;;;;;1.30;1.13;;;6.20;1.00;;;;;;10421832;28;20282;-82
2023/12/30 02:37:52;;;;;;;3.40;1.40;;;6.20;1.00;;;;;;10436887;28;20453;-81
2023/12/30 02:43:13;;;;;;;3.70;1.47;;;6.20;1.00;;;;;;10408632;28;20198;-82
2023/12/30 02:48:34;;;;;;;3.67;1.20;;;6.10;1.00;;;;;;10408014;28;20202;-81
2023/12/30 02:53:56;;;;;;;7.60;1.80;;;6.00;1.00;;;;;;10434904;28;20250;-83
2023/12/30 02:59:17;;;;;;;3.87;1.73;;;5.90;1.00;;;;;;10367482;28;20222;-81
2023/12/30 03:04:39;;;;;;;10.23;1.93;;;5.70;1.00;;;;;;10399753;28;20222;-82
2023/12/30 03:10:00;;;;;;;5.20;1.30;;;5.60;1.00;;;;;;10394766;28;20399;-82
2023/12/30 03:15:21;;;;;;;4.70;1.30;;;5.50;1.00;;;;;;10380830;28;20199;-84
2023/12/30 03:20:43;;;;;;;4.50;1.40;;;5.50;99.90;;;;;;10384096;28;20226;-82
2023/12/30 03:26:06;;;;;;;5.30;1.10;;;5.50;1.00;;;;;;10374682;28;20197;-81
2023/12/30 03:31:27;;;;;;;2.37;1.30;;;5.50;1.00;;;;;;10405165;28;20208;-81
2023/12/30 03:36:49;;;;;;;4.87;1.30;;;5.50;1.00;;;;;;10425251;28;20245;-82
2023/12/30 03:42:10;;;;;;;3.47;1.47;;;5.40;1.00;;;;;;10415535;28;20233;-83
2023/12/30 03:47:31;;;;;;;3.77;1.50;;;5.40;1.00;;;;;;10443170;28;20197;-82
2023/12/30 03:52:52;;;;;;;4.27;1.70;;;5.30;1.00;;;;;;10424751;28;20322;-81
2023/12/30 03:58:14;;;;;;;3.83;1.33;;;5.40;1.00;;;;;;10428584;28;20602;-82
2023/12/30 04:03:35;;;;;;;3.10;1.33;;;5.30;1.00;;;;;;10427974;28;20434;-81
2023/12/30 04:08:57;;;;;;;2.63;1.27;;;5.20;58.80;;;;;;10442125;28;20275;-80
2023/12/30 04:14:18;;;;;;;5.20;1.40;;;5.20;99.90;;;;;;10427971;28;20278;-80
2023/12/30 04:19:39;;;;;;;3.07;1.27;;;5.20;55.60;;;;;;10416863;28;20324;-81
2023/12/30 04:25:02;;;;;;;3.17;1.20;;;5.10;56.40;;;;;;10414734;28;20212;-81
2023/12/30 04:30:24;;;;;;;2.20;1.20;;;5.10;14.80;;;;;;10402395;28;20400;-82
2023/12/30 04:35:45;;;;;;;1.57;1.30;;;5.10;1.90;;;;;;10400259;28;20248;-81
2023/12/30 04:41:06;;;;;;;3.77;1.10;;;5.00;16.50;;;;;;10426834;28;20312;-80
2023/12/30 04:46:28;;;;;;;2.83;0.97;;;5.00;33.00;;;;;;10440025;28;20298;-80
2023/12/30 04:51:49;;;;;;;2.63;1.20;;;5.10;1.00;;;;;;10394716;28;20235;-82
2023/12/30 04:57:10;;;;;;;4.57;1.17;;;5.10;1.00;;;;;;10398989;28;20243;-83
2023/12/30 05:02:32;;;;;;;2.13;1.40;;;5.10;1.00;;;;;;10398620;28;20237;-81
2023/12/30 05:07:53;;;;;;;2.57;1.13;;;5.10;1.00;;;;;;10388310;28;20205;-82
2023/12/30 05:13:16;;;;;;;5.67;1.77;;;5.10;1.00;;;;;;10398311;28;20229;-81
2023/12/30 05:18:38;;;;;;;3.33;1.33;;;5.00;1.00;;;;;;10405831;28;20275;-81
2023/12/30 05:23:59;;;;;;;6.93;1.60;;;4.90;1.00;;;;;;10425450;28;20225;-82
2023/12/30 05:29:21;;;;;;;4.17;1.53;;;4.90;1.00;;;;;;10397849;28;20536;-81
2023/12/30 05:34:43;;;;;;;5.63;3.37;;;4.80;1.00;;;;;;10403333;28;20194;-82
2023/12/30 05:40:06;;;;;;;8.87;3.53;;;4.80;1.00;;;;;;10410706;28;20225;-83
2023/12/30 05:45:27;;;;;;;11.03;3.23;;;4.80;1.00;;;;;;10424373;28;20243;-82
2023/12/30 05:50:49;;;;;;;5.47;2.30;;;4.80;1.00;;;;;;10397257;28;20214;-81
2023/12/30 05:56:10;;;;;;;8.40;1.90;;;4.90;1.00;;;;;;10395777;28;20250;-85
2023/12/30 06:01:31;;;;;;;6.67;2.67;;;4.90;1.00;;;;;;10410901;28;20299;-86
2023/12/30 06:06:53;;;;;;;13.23;4.93;;;4.90;1.00;;;;;;10382500;28;20205;-81
2023/12/30 06:12:14;;;;;;;8.63;3.00;;;4.90;1.00;;;;;;10412587;28;20502;-82
2023/12/30 06:17:36;;;;;;;7.70;3.50;;;4.90;1.00;;;;;;10399390;28;20234;-84
2023/12/30 06:22:57;;;;;;;5.70;2.87;;;4.90;1.00;;;;;;10382111;28;20195;-82
2023/12/30 06:28:19;;;;;;;10.07;2.90;;;5.00;1.00;;;;;;10382689;28;20198;-83
2023/12/30 06:33:40;;;;;;;12.57;3.50;;;5.00;1.00;;;;;;10431372;28;20289;-85
2023/12/30 06:39:01;;;;;;;9.20;4.13;;;5.10;1.00;;;;;;10438569;28;20248;-83
2023/12/30 06:44:25;;;;;;;13.03;5.27;;;5.00;1.00;;;;;;10435715;28;20209;-84
2023/12/30 06:49:46;;;;;;;17.13;4.90;;;5.00;1.00;;;;;;10422414;28;20441;-82
2023/12/30 06:55:11;;;;;;;9.53;4.40;;;5.10;1.00;;;;;;10435396;28;20466;-82
2023/12/30 07:00:35;;;;;;;7.43;4.37;;;5.10;1.00;;;;;;10422296;28;20226;-83
2023/12/30 07:05:56;;;;;;;12.50;4.53;;;5.10;1.00;;;;;;10422028;28;20194;-82
2023/12/30 07:11:17;;;;;;;4.13;2.53;;;5.00;1.00;;;;;;10433498;28;20190;-81
2023/12/30 07:16:38;;;;;;;4.87;2.20;;;5.10;1.00;;;;;;10394840;28;20206;-82
2023/12/30 07:22:00;;;;;;;4.83;2.40;;;5.00;1.00;;;;;;10394697;28;20279;-83
2023/12/30 07:27:21;;;;;;;17.13;8.10;;;5.10;1.00;;;;;;10411882;28;20199;-82
2023/12/30 07:32:42;;;;;;;10.87;7.43;;;5.10;1.00;;;;;;10414362;28;20240;-82
2023/12/30 07:38:04;;;;;;;13.70;7.03;;;5.10;1.00;;;;;;10402165;28;20245;-81
2023/12/30 07:43:25;;;;;;;20.13;6.80;;;5.20;1.00;;;;;;10397548;28;20286;-82
2023/12/30 07:48:46;;;;;;;14.37;8.67;;;5.10;1.00;;;;;;10395323;28;20200;-81
2023/12/30 07:54:08;;;;;;;10.97;6.27;;;5.20;1.00;;;;;;10407447;28;20258;-81
2023/12/30 07:59:30;;;;;;;10.40;4.67;;;5.20;1.00;;;;;;10434687;28;20222;-83
2023/12/30 08:04:54;;;;;;;25.40;8.97;;;5.20;1.00;;;;;;10407223;28;20194;-81
2023/12/30 08:10:15;;;;;;;15.87;5.90;;;5.10;1.00;;;;;;10420761;28;20205;-83
2023/12/30 08:15:37;;;;;;;29.30;10.90;;;5.10;1.00;;;;;;10391343;28;20215;-82
2023/12/30 08:20:58;;;;;;;38.83;14.27;;;5.20;1.00;;;;;;10398565;28;20269;-80
2023/12/30 08:26:19;;;;;;;16.20;4.80;;;5.10;25.20;;;;;;10423536;28;20237;-82
2023/12/30 08:31:45;;;;;;;7.50;2.60;;;5.20;59.40;;;;;;10427349;28;20205;-82
2023/12/30 08:37:08;;;;;;;25.67;9.77;;;5.10;56.10;;;;;;10413936;28;20252;-81
2023/12/30 08:42:34;;;;;;;19.27;6.60;;;5.20;99.90;;;;;;10385871;28;20230;-83
2023/12/30 08:47:55;;;;;;;12.43;4.10;;;5.20;24.80;;;;;;10380251;28;20213;-82
2023/12/30 08:53:18;;;;;;;16.47;4.93;;;5.20;37.20;;;;;;10440406;28;20230;-83
2023/12/30 08:58:39;;;;;;;9.13;2.87;;;5.20;1.00;;;;;;10426319;28;20234;-83
2023/12/30 09:04:00;;;;;;;11.37;4.00;;;5.30;1.00;;;;;;10426470;28;20199;-83
2023/12/30 09:09:22;;;;;;;5.70;2.13;;;5.30;20.10;;;;;;10390893;28;20227;-83
2023/12/30 09:14:43;;;;;;;6.93;2.40;;;5.30;8.30;;;;;;10384612;28;20249;-80
2023/12/30 09:20:05;;;;;;;4.50;2.07;;;5.30;12.80;;;;;;10384034;28;20233;-82
2023/12/30 09:25:26;;;;;;;11.70;5.20;;;5.30;1.00;;;;;;10385845;28;20198;-81
2023/12/30 09:30:48;;;;;;;25.70;10.63;;;5.40;1.00;;;;;;10417650;28;20282;-84
2023/12/30 09:36:09;;;;;;;2.80;1.90;;;5.30;1.00;;;;;;10393600;28;20443;-83
2023/12/30 09:41:31;;;;;;;3.50;1.00;;;5.30;1.00;;;;;;10409204;28;20223;-82
2023/12/30 09:46:54;;;;;;;4.43;2.17;;;5.30;1.00;;;;;;10383450;28;20207;-81
2023/12/30 09:52:15;;;;;;;2.00;1.40;;;5.20;1.00;;;;;;10383055;28;20463;-81
2023/12/30 09:57:37;;;;;;;4.30;2.07;;;5.10;1.00;;;;;;10369571;28;20212;-81
2023/12/30 10:02:58;;;;;;;3.03;1.40;;;5.10;99.90;;;;;;10399194;28;20233;-81
2023/12/30 10:08:21;;;;;;;1.47;1.10;;;5.10;1.00;;;;;;10385272;28;20208;-82
2023/12/30 10:13:43;;;;;;;0.90;0.50;;;5.10;1.00;;;;;;10412736;28;20213;-81
2023/12/30 10:19:16;;;;;;;1.83;1.10;;;5.00;1.00;;;;;;10382030;28;20535;-81
2023/12/30 10:24:37;;;;;;;2.27;1.23;;;4.90;1.00;;;;;;10410236;28;20371;-82
2023/12/30 10:29:58;;;;;;;4.40;3.00;;;4.90;99.90;;;;;;10407438;28;20203;-81
2023/12/30 10:35:21;;;;;;;1.70;1.60;;;4.80;99.90;;;;;;10403085;28;20499;-83
2023/12/30 10:40:43;;;;;;;2.53;1.50;;;4.70;1.00;;;;;;10429498;28;20246;-81
2023/12/30 10:46:11;;;;;;;0.40;0.40;;;4.70;1.00;;;;;;10422080;28;20201;-82
2023/12/30 10:51:34;;;;;;;0.50;0.47;;;4.60;99.90;;;;;;10421995;28;20495;-82
2023/12/30 10:57:01;;;;;;;0.73;0.47;;;4.60;1.00;;;;;;10421693;28;20481;-81
2023/12/30 11:02:23;;;;;;;0.90;0.43;;;4.60;99.90;;;;;;10435467;28;20490;-84
2023/12/30 11:07:45;;;;;;;1.03;0.90;;;4.50;1.00;;;;;;10414889;28;20215;-84
2023/12/30 11:13:06;;;;;;;0.53;0.53;;;4.60;99.90;;;;;;10381135;28;20278;-82
2023/12/30 11:18:50;;;;;;;0.97;0.80;;;4.70;1.00;;;;;;10380612;28;20237;-81
2023/12/30 11:24:12;;;;;;;3.40;1.03;;;4.70;99.90;;;;;;10394324;28;20411;-81
2023/12/30 11:29:36;;;;;;;0.70;0.70;;;4.70;99.90;;;;;;10415686;28;20259;-81
2023/12/30 11:34:59;;;;;;;1.83;0.97;;;4.70;99.90;;;;;;10399698;28;20508;-81
2023/12/30 11:40:21;;;;;;;1.00;0.80;;;4.70;99.90;;;;;;10380280;28;20300;-81
2023/12/30 11:45:42;;;;;;;1.00;0.80;;;4.80;1.00;;;;;;10380245;28;20201;-81
2023/12/30 11:51:04;;;;;;;1.83;0.60;;;4.90;99.90;;;;;;10413886;28;20208;-83
2023/12/30 11:56:25;;;;;;;1.17;0.70;;;5.00;99.90;;;;;;10427458;28;20229;-85
2023/12/30 12:01:46;;;;;;;1.27;0.60;;;5.00;10.50;;;;;;10428675;28;20233;-83
2023/12/30 12:07:07;;;;;;;1.00;0.77;;;5.00;99.90;;;;;;10415843;28;20209;-82
2023/12/30 12:12:39;;;;;;;0.93;0.53;;;5.00;99.90;;;;;;10483105;28;20200;-82
2023/12/30 12:18:01;;;;;;;2.73;0.77;;;5.10;55.40;;;;;;10468885;28;20223;-83
2023/12/30 12:23:23;;;;;;;2.50;0.80;;;5.30;99.90;;;;;;10469076;28;20207;-82
2023/12/30 12:28:45;;;;;;;2.43;1.33;;;5.30;1.00;;;;;;10425166;28;20549;-83
2023/12/30 12:34:23;;;;;;;2.47;0.87;;;5.40;99.90;;;;;;10400247;28;20209;-80
2023/12/30 12:39:45;;;;;;;3.70;1.13;;;5.40;1.00;;;;;;10405168;28;20536;-82
2023/12/30 12:45:07;;;;;;;2.13;1.00;;;5.30;92.20;;;;;;10385959;28;20489;-81
2023/12/30 12:50:31;;;;;;;2.50;1.00;;;5.30;1.00;;;;;;10428627;28;20202;-80
2023/12/30 12:55:52;;;;;;;2.10;1.47;;;5.30;1.00;;;;;;10412370;28;20239;-85
2023/12/30 13:01:14;;;;;;;4.53;1.40;;;5.20;99.90;;;;;;10425934;28;20228;-85
2023/12/30 13:06:41;;;;;;;3.63;1.20;;;5.20;99.90;;;;;;10408419;28;20486;-81
2023/12/30 13:12:03;;;;;;;1.73;0.93;;;5.10;1.00;;;;;;10384903;28;20257;-81
2023/12/30 13:17:24;;;;;;;9.07;2.90;;;5.20;99.90;;;;;;10385015;28;20481;-82
2023/12/30 13:22:49;;;;;;;8.07;2.83;;;5.20;99.90;;;;;;10371229;28;20210;-81
2023/12/30 13:28:10;;;;;;;2.73;1.50;;;5.20;1.00;;;;;;10408535;28;20293;-80
2023/12/30 13:33:35;;;;;;;1.00;0.70;;;5.10;1.00;;;;;;10439094;28;20221;-84
2023/12/30 13:39:05;;;;;;;2.83;1.20;;;5.10;1.00;;;;;;10424306;28;20225;-82
2023/12/30 13:44:28;;;;;;;2.60;0.87;;;5.10;99.90;;;;;;10424421;28;20367;-81
2023/12/30 13:50:13;;;;;;;1.97;1.33;;;5.00;1.00;;;;;;10410615;28;20431;-84
2023/12/30 13:55:36;;;;;;;3.10;1.63;;;5.00;99.90;;;;;;10423814;28;20249;-81
2023/12/30 14:00:57;;;;;;;2.17;1.50;;;5.00;99.90;;;;;;10423941;28;20225;-82
2023/12/30 14:06:21;;;;;;;3.33;1.33;;;4.90;99.90;;;;;;10407314;28;20281;-81
2023/12/30 14:11:47;;;;;;;2.87;1.50;;;5.00;99.90;;;;;;10409235;28;20243;-81
2023/12/30 14:17:09;;;;;;;3.33;1.70;;;4.90;99.90;;;;;;10422710;28;20224;-83
2023/12/30 14:22:32;;;;;;;4.57;2.83;;;5.00;99.90;;;;;;10437320;28;20237;-82
2023/12/30 14:27:54;;;;;;;13.03;7.37;;;5.00;99.90;;;;;;10436942;28;20209;-81
2023/12/30 14:33:15;;;;;;;9.50;4.80;;;5.00;99.90;;;;;;10409304;28;20244;-82
2023/12/30 14:38:37;;;;;;;4.97;2.57;;;4.90;1.00;;;;;;10385173;28;20277;-83
2023/12/30 14:43:58;;;;;;;1.20;0.90;;;4.70;1.00;;;;;;10393401;28;20200;-82
2023/12/30 14:49:19;;;;;;;4.00;1.80;;;4.70;99.70;;;;;;10422354;28;20205;-82
2023/12/30 14:54:41;;;;;;;7.73;3.53;;;4.70;99.90;;;;;;10401525;28;20246;-82
2023/12/30 15:00:04;;;;;;;9.87;3.57;;;4.80;99.90;;;;;;10381275;28;20230;-81
2023/12/30 15:05:25;;;;;;;4.37;1.67;;;4.70;1.00;;;;;;10395264;28;20193;-82
2023/12/30 15:10:48;;;;;;;2.73;1.10;;;4.70;1.00;;;;;;10380912;28;20514;-81
2023/12/30 15:16:09;;;;;;;4.80;2.80;;;4.60;99.90;;;;;;10381207;28;20195;-83
2023/12/30 15:21:31;;;;;;;6.37;3.07;;;4.60;1.00;;;;;;10367202;28;20232;-82
2023/12/30 15:26:52;;;;;;;4.93;1.73;;;4.60;99.90;;;;;;10375028;28;20201;-82
2023/12/30 15:32:14;;;;;;;9.43;1.73;;;4.70;99.90;;;;;;10416947;28;20306;-81
2023/12/30 15:37:36;;;;;;;2.23;1.90;;;4.70;99.90;;;;;;10402589;28;20203;-81
2023/12/30 15:42:57;;;;;;;18.90;9.60;;;4.70;99.90;;;;;;10405453;28;20194;-82
2023/12/30 15:48:19;;;;;;;13.90;7.63;;;4.70;99.90;;;;;;10429083;28;20201;-82
2023/12/30 15:53:40;;;;;;;7.73;3.77;;;4.70;99.90;;;;;;10441702;28;20230;-82
2023/12/30 15:59:01;;;;;;;5.03;2.33;;;4.60;1.00;;;;;;10387747;28;20530;-81
2023/12/30 16:04:23;;;;;;;5.47;1.50;;;4.60;99.90;;;;;;10387540;28;20213;-81
2023/12/30 16:09:44;;;;;;;3.80;1.60;;;4.60;99.90;;;;;;10373648;28;20223;-81
2023/12/30 16:15:06;;;;;;;7.40;2.03;;;4.40;99.90;;;;;;10373296;28;20193;-80
2023/12/30 16:20:28;;;;;;;5.83;1.80;;;4.40;99.90;;;;;;10401886;28;20234;-81
2023/12/30 16:25:49;;;;;;;6.07;1.77;;;4.40;33.90;;;;;;10409190;28;20198;-81
2023/12/30 16:31:11;;;;;;;7.80;2.33;;;4.40;99.90;;;;;;10427361;28;20206;-80
2023/12/30 16:36:33;;;;;;;6.27;2.20;;;4.30;99.90;;;;;;10441249;28;20197;-81
2023/12/30 16:41:55;;;;;;;8.80;2.43;;;4.30;1.00;;;;;;10442873;28;20234;-83
2023/12/30 16:47:17;;;;;;;9.60;2.60;;;4.40;99.90;;;;;;10440921;28;20216;-81
2023/12/30 16:52:38;;;;;;;12.17;2.13;;;4.40;99.90;;;;;;10426472;28;20687;-82
2023/12/30 16:58:01;;;;;;;12.53;3.37;;;4.40;99.90;;;;;;10405274;28;20202;-81
2023/12/30 17:03:22;;;;;;;5.43;2.03;;;4.30;99.90;;;;;;10385504;28;20273;-83
2023/12/30 17:08:44;;;;;;;7.87;2.10;;;4.30;99.90;;;;;;10371772;28;20447;-81
2023/12/30 17:14:05;;;;;;;9.23;2.50;;;4.20;99.90;;;;;;10399256;28;20200;-80
2023/12/30 17:19:26;;;;;;;8.70;2.63;;;4.20;99.90;;;;;;10384488;28;20230;-81
2023/12/30 17:24:48;;;;;;;10.13;2.60;;;4.10;99.90;;;;;;10388100;28;20249;-81
2023/12/30 17:30:09;;;;;;;9.73;2.50;;;4.10;99.90;;;;;;10399620;28;20206;-81
2023/12/30 17:35:30;;;;;;;8.57;2.50;;;4.20;99.90;;;;;;10439164;28;20210;-81
2023/12/30 17:40:52;;;;;;;16.03;4.30;;;4.30;1.00;;;;;;10438783;28;20221;-82
2023/12/30 17:46:13;;;;;;;10.83;3.63;;;4.30;99.90;;;;;;10438456;28;20185;-80
2023/12/30 17:51:35;;;;;;;9.27;3.30;;;4.30;20.10;;;;;;10424275;28;20285;-82
2023/12/30 17:56:56;;;;;;;16.03;4.27;;;4.40;99.90;;;;;;10395206;28;20237;-81
2023/12/30 18:02:18;;;;;;;9.70;3.53;;;4.50;1.00;;;;;;10420145;28;20459;-80
2023/12/30 18:07:40;;;;;;;11.20;2.80;;;4.50;1.00;;;;;;10410078;28;20244;-81
2023/12/30 18:13:01;;;;;;;12.30;3.37;;;4.50;99.90;;;;;;10423512;28;20471;-80
2023/12/30 18:18:23;;;;;;;11.43;2.90;;;4.50;1.00;;;;;;10436918;28;20197;-81
2023/12/30 18:23:44;;;;;;;11.77;3.20;;;4.40;99.90;;;;;;10418130;28;20286;-81
2023/12/30 18:29:06;;;;;;;14.67;4.50;;;4.40;99.90;;;;;;10414702;28;20190;-81
2023/12/30 18:34:27;;;;;;;10.57;3.50;;;4.50;1.00;;;;;;10432617;28;20286;-82
2023/12/30 18:39:49;;;;;;;13.63;3.77;;;4.40;99.90;;;;;;10422794;28;20276;-82
2023/12/30 18:45:11;;;;;;;10.57;3.07;;;4.50;1.00;;;;;;10422394;28;20504;-80
2023/12/30 18:50:33;;;;;;;8.10;2.20;;;4.50;1.00;;;;;;10422281;28;20436;-81
2023/12/30 18:55:54;;;;;;;29.43;14.00;;;4.50;77.10;;;;;;10399760;28;20249;-80
2023/12/30 19:01:16;;;;;;;11.90;3.20;;;4.50;1.00;;;;;;10397179;28;20429;-81
2023/12/30 19:06:37;;;;;;;9.27;2.70;;;4.50;99.90;;;;;;10398110;28;20207;-81
2023/12/30 19:11:58;;;;;;;10.10;2.67;;;4.50;99.90;;;;;;10381355;28;20198;-81
2023/12/30 19:17:19;;;;;;;9.47;3.07;;;4.50;1.00;;;;;;10381289;28;20200;-82
2023/12/30 19:22:41;;;;;;;11.43;2.57;;;4.50;25.60;;;;;;10373890;28;20262;-82
2023/12/30 19:28:04;;;;;;;8.87;2.53;;;4.50;1.00;;;;;;10403942;28;20215;-81
2023/12/30 19:33:26;;;;;;;13.30;2.60;;;4.50;1.00;;;;;;10407502;28;20225;-81
2023/12/30 19:38:48;;;;;;;15.27;3.60;;;4.60;99.90;;;;;;10421333;28;20218;-82
2023/12/30 19:44:10;;;;;;;15.23;3.00;;;4.60;99.90;;;;;;10421274;28;20197;-80
2023/12/30 19:49:31;;;;;;;13.17;2.93;;;4.60;1.00;;;;;;10421202;28;20206;-82
2023/12/30 19:54:53;;;;;;;10.60;2.03;;;4.50;1.00;;;;;;10409252;28;20293;-82
2023/12/30 20:00:14;;;;;;;9.37;2.63;;;4.50;1.00;;;;;;10380475;28;20222;-81
2023/12/30 20:05:35;;;;;;;8.20;1.90;;;4.50;1.00;;;;;;10380074;28;20209;-82
2023/12/30 20:10:57;;;;;;;7.23;2.37;;;4.50;1.00;;;;;;10380051;28;20229;-81
2023/12/30 20:16:18;;;;;;;7.40;3.10;;;4.60;1.00;;;;;;10397975;28;20199;-81
2023/12/30 20:21:40;;;;;;;12.57;3.93;;;4.50;99.90;;;;;;10390906;28;20242;-82
2023/12/30 20:27:01;;;;;;;10.67;3.90;;;4.50;1.00;;;;;;10429347;28;20276;-81
2023/12/30 20:32:22;;;;;;;13.60;3.33;;;4.60;99.90;;;;;;10421567;28;20233;-80
2023/12/30 20:37:44;;;;;;;14.33;4.10;;;4.50;99.90;;;;;;10400052;28;20203;-80
2023/12/30 20:43:05;;;;;;;6.53;2.60;;;4.50;1.00;;;;;;10418230;28;20220;-81
2023/12/30 20:48:27;;;;;;;9.50;3.90;;;4.50;1.00;;;;;;10426170;28;20197;-81
2023/12/30 20:53:49;;;;;;;10.40;2.83;;;4.50;1.00;;;;;;10386537;28;20537;-82
2023/12/30 20:59:10;;;;;;;7.90;2.40;;;4.50;1.00;;;;;;10371993;28;20215;-81
2023/12/30 21:04:35;;;;;;;17.17;5.80;;;4.50;99.90;;;;;;10399571;28;20195;-82
2023/12/30 21:09:56;;;;;;;19.73;7.77;;;4.50;1.00;;;;;;10371322;28;20207;-82
2023/12/30 21:15:18;;;;;;;11.00;5.40;;;4.50;99.90;;;;;;10371308;28;20237;-81
2023/12/30 21:20:39;;;;;;;5.90;2.40;;;4.50;1.00;;;;;;10374915;28;20414;-81
2023/12/30 21:26:02;;;;;;;6.40;2.87;;;4.50;87.50;;;;;;10418616;28;20202;-81
2023/12/30 21:31:25;;;;;;;18.77;7.57;;;4.50;1.00;;;;;;10413040;28;20210;-81
2023/12/30 21:36:46;;;;;;;13.93;3.83;;;4.40;1.00;;;;;;10384073;28;20198;-82
2023/12/30 21:42:09;;;;;;;11.43;3.00;;;4.50;1.00;;;;;;10383526;28;20222;-82
2023/12/30 21:47:30;;;;;;;14.87;6.23;;;4.50;1.00;;;;;;10427748;28;20509;-81
2023/12/30 21:52:53;;;;;;;14.77;7.90;;;4.50;1.00;;;;;;10438194;28;20241;-81
2023/12/30 21:58:14;;;;;;;15.20;6.17;;;4.50;1.00;;;;;;10424250;28;20201;-81
2023/12/30 22:03:36;;;;;;;10.80;5.23;;;4.40;99.90;;;;;;10437767;28;20253;-83
2023/12/30 22:08:57;;;;;;;12.50;5.20;;;4.40;99.90;;;;;;10423287;28;20207;-81
2023/12/30 22:14:18;;;;;;;12.47;4.83;;;4.30;21.40;;;;;;10422684;28;20202;-82
2023/12/30 22:19:40;;;;;;;13.00;4.60;;;4.30;1.00;;;;;;10423514;28;20231;-82
2023/12/30 22:25:04;;;;;;;9.33;3.83;;;4.30;1.00;;;;;;10423263;28;20375;-81
2023/12/30 22:30:25;;;;;;;9.83;4.13;;;4.30;1.00;;;;;;10433260;28;20190;-82
2023/12/30 22:35:48;;;;;;;9.57;2.93;;;4.40;99.90;;;;;;10381598;28;20199;-81
2023/12/30 22:41:09;;;;;;;6.73;2.33;;;4.40;99.90;;;;;;10395283;28;20243;-81
2023/12/30 22:46:30;;;;;;;9.07;3.03;;;4.30;85.60;;;;;;10394260;28;20249;-82
2023/12/30 22:51:52;;;;;;;10.73;3.70;;;4.30;1.00;;;;;;10421541;28;20212;-85
2023/12/30 22:57:13;;;;;;;13.50;5.13;;;4.40;99.90;;;;;;10422141;28;20232;-82
2023/12/30 23:02:35;;;;;;;12.43;4.13;;;4.40;99.90;;;;;;10436239;28;20602;-81
2023/12/30 23:07:57;;;;;;;7.10;3.17;;;4.30;1.00;;;;;;10427157;28;20211;-82
2023/12/30 23:13:18;;;;;;;7.87;3.77;;;4.30;1.00;;;;;;10381116;28;20279;-84
2023/12/30 23:18:40;;;;;;;12.30;5.57;;;4.20;1.00;;;;;;10381400;28;20400;-84
2023/12/30 23:24:03;;;;;;;11.87;5.13;;;4.20;99.90;;;;;;10412354;28;20558;-82
2023/12/30 23:29:26;;;;;;;7.07;3.43;;;4.20;1.00;;;;;;10421777;28;20253;-82
2023/12/30 23:34:47;;;;;;;5.60;2.30;;;4.30;1.00;;;;;;10396859;28;20286;-84
2023/12/30 23:40:10;;;;;;;6.13;2.40;;;4.30;99.90;;;;;;10408972;28;20222;-83
2023/12/30 23:45:31;;;;;;;9.87;2.93;;;4.30;99.90;;;;;;10404892;28;20197;-81
2023/12/30 23:50:55;;;;;;;6.00;2.60;;;4.40;99.90;;;;;;10410745;28;20207;-81
2023/12/30 23:56:17;;;;;;;16.33;5.93;;;4.40;99.90;;;;;;10388243;28;20538;-84
